Time;durP1;ratioP1;P1;durP2;ratioP2;P2;SDS_P1;SDS_P2;PMS_P1;PMS_P2;Temp;Humidity;BMP_temperature;BMP_pressure;BME280_temperature;BME280_humidity;BME280_pressure;Samples;Min_cycle;Max_cycle;Signal;HPM_P1;HPM_P2
2023/08/08 00:00:01;;;;;;;6.13;2.43;;;14.10;99.90;;;;;;5006190;28;20570;-69
2023/08/08 00:02:32;;;;;;;3.13;1.87;;;14.20;99.90;;;;;;5016651;28;21037;-69
2023/08/08 00:04:59;;;;;;;2.80;2.00;;;14.10;99.90;;;;;;5019860;28;20300;-69
2023/08/08 00:07:30;;;;;;;2.17;1.70;;;14.10;99.90;;;;;;5010493;28;20755;-70
2023/08/08 00:09:57;;;;;;;2.67;1.90;;;14.00;99.90;;;;;;5001001;28;20199;-71
2023/08/08 00:12:24;;;;;;;3.37;1.83;;;13.90;99.90;;;;;;5014947;28;20204;-70
2023/08/08 00:14:51;;;;;;;2.97;2.23;;;13.90;99.90;;;;;;5018741;28;20266;-71
2023/08/08 00:17:18;;;;;;;4.53;2.40;;;13.90;99.90;;;;;;5032945;28;20254;-69
2023/08/08 00:19:45;;;;;;;2.50;1.73;;;13.80;99.90;;;;;;5020913;28;20640;-69
2023/08/08 00:22:12;;;;;;;3.13;2.00;;;13.80;99.90;;;;;;5033776;28;20232;-69
2023/08/08 00:24:39;;;;;;;3.53;2.17;;;13.90;99.90;;;;;;5040440;28;20530;-70
2023/08/08 00:27:06;;;;;;;5.97;2.67;;;13.80;99.90;;;;;;5031922;28;20651;-69
2023/08/08 00:29:33;;;;;;;4.13;2.50;;;13.80;99.90;;;;;;5030260;28;20222;-69
2023/08/08 00:32:00;;;;;;;3.97;2.43;;;13.80;99.90;;;;;;5027707;28;20196;-69
2023/08/08 00:34:27;;;;;;;3.60;2.30;;;13.80;99.90;;;;;;5018924;28;20215;-69
2023/08/08 00:36:54;;;;;;;2.17;1.97;;;13.80;99.90;;;;;;5033637;28;20228;-69
2023/08/08 00:39:21;;;;;;;2.87;2.00;;;13.80;99.90;;;;;;5015549;28;20216;-70
2023/08/08 00:41:49;;;;;;;6.30;2.63;;;13.60;99.90;;;;;;5032416;28;20215;-70
2023/08/08 00:44:16;;;;;;;4.53;2.33;;;13.50;99.90;;;;;;5017116;28;20672;-65
2023/08/08 00:46:43;;;;;;;5.63;2.23;;;13.50;99.90;;;;;;5030204;28;20184;-65
2023/08/08 00:49:10;;;;;;;3.27;1.70;;;13.40;99.90;;;;;;5037879;28;20188;-65
2023/08/08 00:51:38;;;;;;;4.03;2.03;;;13.40;99.90;;;;;;5024303;28;20204;-64
2023/08/08 00:54:05;;;;;;;2.43;1.93;;;13.50;99.90;;;;;;5031042;28;20740;-64
2023/08/08 00:56:35;;;;;;;2.00;1.70;;;13.50;99.90;;;;;;5031278;28;20287;-64
2023/08/08 00:59:02;;;;;;;4.43;2.30;;;13.50;99.90;;;;;;5030633;28;20200;-69
2023/08/08 01:01:31;;;;;;;3.60;2.00;;;13.50;99.90;;;;;;5034442;28;20683;-68
2023/08/08 01:04:30;;;;;;;1.70;1.60;;;13.40;99.90;;;;;;5009942;28;20275;-62
2023/08/08 01:07:02;;;;;;;4.57;2.00;;;13.40;99.90;;;;;;5021266;28;20190;-63
2023/08/08 01:09:35;;;;;;;3.57;1.90;;;13.40;99.90;;;;;;5024194;28;20200;-65
2023/08/08 01:12:03;;;;;;;3.77;2.10;;;13.30;99.90;;;;;;5020614;28;20256;-65
2023/08/08 01:14:33;;;;;;;2.30;2.10;;;13.40;99.90;;;;;;5021920;28;21051;-64
2023/08/08 01:17:02;;;;;;;3.43;2.37;;;13.40;99.90;;;;;;5005734;28;20197;-62
2023/08/08 01:19:31;;;;;;;3.10;2.30;;;13.40;99.90;;;;;;5004844;28;20708;-62
2023/08/08 01:22:04;;;;;;;6.97;2.50;;;13.40;99.90;;;;;;5000187;28;20665;-65
2023/08/08 01:24:34;;;;;;;3.03;2.03;;;13.40;99.90;;;;;;5009334;28;20556;-62
2023/08/08 01:27:01;;;;;;;3.17;2.27;;;13.50;99.90;;;;;;5009156;28;20197;-62
2023/08/08 01:29:28;;;;;;;3.53;2.43;;;13.50;99.90;;;;;;5014066;28;20197;-62
2023/08/08 01:31:55;;;;;;;6.83;3.20;;;13.50;99.90;;;;;;5003258;28;20660;-63
2023/08/08 01:34:23;;;;;;;3.23;2.10;;;13.50;99.90;;;;;;5017251;28;20196;-63
2023/08/08 01:37:14;;;;;;;2.80;2.13;;;13.60;99.90;;;;;;5021448;28;20259;-62
2023/08/08 01:39:43;;;;;;;4.37;2.93;;;13.80;99.90;;;;;;5026346;28;20262;-62
2023/08/08 01:42:12;;;;;;;5.93;2.70;;;13.70;99.90;;;;;;5009475;28;20286;-63
2023/08/08 01:44:41;;;;;;;4.00;2.87;;;13.70;99.90;;;;;;5006909;28;20668;-63
2023/08/08 01:47:11;;;;;;;4.67;2.93;;;13.60;99.90;;;;;;5007954;28;20186;-63
2023/08/08 01:49:38;;;;;;;4.30;2.20;;;13.60;99.90;;;;;;5005069;28;20197;-63
2023/08/08 01:52:05;;;;;;;3.80;2.17;;;13.60;99.90;;;;;;5025683;28;20205;-63
2023/08/08 01:54:32;;;;;;;3.17;2.50;;;13.60;99.90;;;;;;5008479;28;20208;-62
2023/08/08 01:56:59;;;;;;;5.20;3.30;;;13.60;99.90;;;;;;5008162;28;20200;-62
2023/08/08 01:59:26;;;;;;;4.90;3.30;;;13.70;99.90;;;;;;5010098;28;20216;-62
2023/08/08 17:59:35;;;;;;;3.58;2.72;;;19.80;99.90;;;;;;4082821;28;20266;-69
2023/08/08 18:02:03;;;;;;;7.57;3.95;;;19.70;99.90;;;;;;4984292;28;20577;-68
2023/08/08 18:04:31;;;;;;;5.40;4.22;;;19.60;99.90;;;;;;4998759;28;20627;-68
2023/08/08 18:06:59;;;;;;;2.40;2.17;;;19.50;99.90;;;;;;4965341;28;20584;-67
2023/08/08 18:09:29;;;;;;;5.97;3.08;;;19.40;99.90;;;;;;4982750;28;20213;-69
2023/08/08 18:11:57;;;;;;;3.75;2.13;;;19.40;99.90;;;;;;4981716;28;20225;-68
2023/08/08 18:14:25;;;;;;;4.65;3.25;;;19.20;99.90;;;;;;4999364;28;20202;-70
2023/08/08 18:16:52;;;;;;;3.17;1.85;;;19.00;99.90;;;;;;4984822;28;20249;-68
2023/08/08 18:19:21;;;;;;;2.22;1.70;;;19.00;99.90;;;;;;5000013;28;20264;-67
2023/08/08 18:21:49;;;;;;;3.70;2.00;;;19.00;99.90;;;;;;4986141;28;20190;-67
2023/08/08 18:24:16;;;;;;;5.93;3.42;;;18.90;99.90;;;;;;4980732;28;20714;-65
2023/08/08 18:26:43;;;;;;;3.60;2.92;;;18.90;99.90;;;;;;4983567;28;20190;-64
2023/08/08 18:29:11;;;;;;;3.80;3.40;;;18.90;99.90;;;;;;4971919;28;20208;-64
2023/08/08 18:31:38;;;;;;;3.95;3.15;;;18.90;99.90;;;;;;4992398;28;20214;-65
2023/08/08 18:34:05;;;;;;;6.57;2.60;;;18.90;99.90;;;;;;4989467;28;20277;-65
2023/08/08 18:36:33;;;;;;;4.25;2.42;;;18.80;99.90;;;;;;4990459;28;20424;-64
2023/08/08 18:39:01;;;;;;;5.75;2.85;;;18.70;99.90;;;;;;4997321;28;20212;-64
2023/08/08 18:41:28;;;;;;;2.90;2.50;;;18.70;99.90;;;;;;4994414;28;20193;-64
2023/08/08 18:43:55;;;;;;;6.25;2.75;;;18.70;99.90;;;;;;5001453;28;20221;-64
2023/08/08 18:46:22;;;;;;;2.78;2.47;;;18.80;99.90;;;;;;5004085;28;20320;-64
2023/08/08 18:48:49;;;;;;;2.72;2.38;;;18.70;99.90;;;;;;4982417;28;20220;-63
2023/08/08 18:51:17;;;;;;;2.92;2.63;;;18.70;99.90;;;;;;4977606;28;20661;-63
2023/08/08 18:53:47;;;;;;;1.65;1.55;;;18.60;99.90;;;;;;4982632;28;20200;-63
2023/08/08 18:56:14;;;;;;;3.38;2.15;;;18.60;99.90;;;;;;4982764;28;20205;-63
2023/08/08 18:58:41;;;;;;;2.63;2.40;;;18.60;99.90;;;;;;4981927;28;20202;-64
2023/08/08 19:01:08;;;;;;;2.40;2.17;;;18.60;99.90;;;;;;4978787;28;20229;-63
2023/08/08 19:03:36;;;;;;;4.03;2.20;;;18.60;99.90;;;;;;4981973;28;20284;-64
2023/08/08 19:06:04;;;;;;;3.20;2.45;;;18.60;99.90;;;;;;4965530;28;20206;-63
2023/08/08 19:08:31;;;;;;;4.97;3.17;;;18.60;99.90;;;;;;4983108;28;20885;-64
2023/08/08 19:10:58;;;;;;;7.20;4.28;;;18.60;99.90;;;;;;4978383;28;20205;-63
2023/08/08 19:13:25;;;;;;;8.43;3.55;;;18.60;99.90;;;;;;4989668;28;20193;-66
2023/08/08 19:15:52;;;;;;;3.95;2.30;;;18.50;99.90;;;;;;4997538;28;20196;-65
2023/08/08 19:18:19;;;;;;;4.20;2.63;;;18.40;99.90;;;;;;4984371;28;20189;-64
2023/08/08 19:20:47;;;;;;;3.15;2.13;;;18.30;99.90;;;;;;4991651;28;20236;-64
2023/08/08 19:23:15;;;;;;;4.20;2.78;;;18.20;99.90;;;;;;4997370;28;20216;-64
2023/08/08 19:25:42;;;;;;;4.72;2.78;;;18.00;99.90;;;;;;4999531;28;20209;-64
2023/08/08 19:28:10;;;;;;;4.30;2.15;;;17.80;99.90;;;;;;4989355;28;20190;-64
2023/08/08 19:30:38;;;;;;;5.45;3.05;;;17.80;99.90;;;;;;4985755;28;20676;-64
2023/08/08 19:33:05;;;;;;;5.53;2.97;;;17.90;99.90;;;;;;4985279;28;20622;-64
2023/08/08 19:35:32;;;;;;;2.28;1.80;;;17.80;99.90;;;;;;4984132;28;20197;-64
2023/08/08 19:38:02;;;;;;;5.55;2.10;;;17.80;99.90;;;;;;4987184;28;20190;-64
2023/08/08 19:40:30;;;;;;;3.20;2.40;;;17.70;99.90;;;;;;4998087;28;20759;-64
2023/08/08 19:42:57;;;;;;;4.03;1.83;;;17.70;99.90;;;;;;5001186;28;22077;-64
2023/08/08 19:45:24;;;;;;;3.47;2.20;;;17.50;99.90;;;;;;4991782;28;20572;-63
2023/08/08 19:47:51;;;;;;;2.17;1.88;;;17.60;99.90;;;;;;4989714;28;20209;-64
2023/08/08 19:50:18;;;;;;;4.40;3.22;;;17.50;99.90;;;;;;4986763;28;20720;-64
2023/08/08 19:52:47;;;;;;;3.90;2.38;;;17.50;99.90;;;;;;4979519;28;21813;-64
2023/08/08 19:55:14;;;;;;;1.90;1.63;;;17.60;99.90;;;;;;4989289;28;20730;-64
2023/08/08 19:57:41;;;;;;;3.92;2.28;;;17.70;99.90;;;;;;4986209;28;20198;-65
2023/08/08 20:00:08;;;;;;;2.95;1.80;;;17.70;99.90;;;;;;4988052;28;20256;-64
2023/08/08 20:02:38;;;;;;;2.05;1.85;;;17.50;99.90;;;;;;5001626;28;20229;-68
2023/08/08 20:05:06;;;;;;;4.28;2.40;;;17.50;99.90;;;;;;4984705;28;20689;-64
2023/08/08 20:07:33;;;;;;;3.83;2.00;;;17.40;99.90;;;;;;4989196;28;20189;-64
2023/08/08 20:10:01;;;;;;;2.85;2.30;;;17.30;99.90;;;;;;4989703;28;20197;-65
2023/08/08 20:12:28;;;;;;;4.00;2.20;;;17.30;99.90;;;;;;4989148;28;20201;-64
2023/08/08 20:14:55;;;;;;;4.30;2.10;;;17.30;99.90;;;;;;4978410;28;20206;-65
2023/08/08 20:17:22;;;;;;;2.80;1.98;;;17.20;99.90;;;;;;4989193;28;20258;-65
2023/08/08 20:19:49;;;;;;;3.65;2.10;;;17.20;99.90;;;;;;4986403;28;20193;-64
2023/08/08 20:22:16;;;;;;;2.65;2.22;;;17.20;99.90;;;;;;4977837;28;20260;-64
2023/08/08 20:24:43;;;;;;;5.88;2.53;;;17.10;99.90;;;;;;4979290;28;20214;-64
2023/08/08 20:27:10;;;;;;;2.75;2.15;;;17.10;99.90;;;;;;4983400;28;20220;-64
2023/08/08 20:29:37;;;;;;;5.15;2.42;;;17.00;99.90;;;;;;4987673;28;20204;-64
2023/08/08 20:32:04;;;;;;;3.47;2.50;;;17.00;99.90;;;;;;5003901;28;20193;-64
2023/08/08 20:34:31;;;;;;;3.50;2.00;;;17.10;99.90;;;;;;4985421;28;20383;-64
2023/08/08 20:36:58;;;;;;;2.53;2.33;;;17.10;99.90;;;;;;4989834;28;20200;-64
2023/08/08 20:39:25;;;;;;;3.63;2.85;;;16.80;99.90;;;;;;4991842;28;20550;-64
2023/08/08 20:41:54;;;;;;;2.65;2.28;;;16.90;99.90;;;;;;4981697;28;20196;-65
2023/08/08 20:44:21;;;;;;;2.63;2.42;;;16.90;99.90;;;;;;4988874;28;20205;-64
2023/08/08 20:46:48;;;;;;;6.63;4.80;;;16.90;99.90;;;;;;4987110;28;20193;-64
2023/08/08 20:49:15;;;;;;;7.47;3.90;;;16.80;99.90;;;;;;4982909;28;20189;-65
2023/08/08 20:51:42;;;;;;;5.35;3.45;;;16.70;99.90;;;;;;4981056;28;20185;-65
2023/08/08 20:54:10;;;;;;;3.83;3.10;;;16.60;99.90;;;;;;4986585;28;20646;-68
2023/08/08 20:56:38;;;;;;;4.57;3.47;;;16.60;99.90;;;;;;4979662;28;20212;-65
2023/08/08 20:59:06;;;;;;;4.53;3.88;;;16.60;99.90;;;;;;4972241;28;20271;-65
2023/08/08 21:01:33;;;;;;;6.60;3.85;;;16.60;99.90;;;;;;4977127;28;20228;-65
2023/08/08 21:04:00;;;;;;;5.05;3.28;;;16.50;99.90;;;;;;4978010;28;20217;-65
2023/08/08 21:06:27;;;;;;;4.10;3.13;;;16.60;99.90;;;;;;4984925;28;20252;-65
2023/08/08 21:08:54;;;;;;;5.05;4.18;;;16.60;99.90;;;;;;4975585;28;20202;-64
2023/08/08 21:11:21;;;;;;;5.65;3.67;;;16.80;99.90;;;;;;4980452;28;20202;-65
2023/08/08 21:13:48;;;;;;;5.68;4.43;;;16.70;99.90;;;;;;4977631;28;20198;-64
2023/08/08 21:16:15;;;;;;;3.35;2.97;;;16.50;99.90;;;;;;4980572;28;20201;-65
2023/08/08 21:18:42;;;;;;;3.28;2.80;;;16.40;99.90;;;;;;4979497;28;20278;-66
2023/08/08 21:21:09;;;;;;;6.00;3.55;;;16.60;99.90;;;;;;4974764;28;20198;-62
2023/08/08 21:23:36;;;;;;;5.88;2.60;;;16.60;99.90;;;;;;4984385;28;20203;-62
2023/08/08 21:26:03;;;;;;;3.53;2.97;;;16.60;99.90;;;;;;4973820;28;20241;-61
2023/08/08 21:28:30;;;;;;;5.63;4.10;;;16.60;99.90;;;;;;4978729;28;20224;-62
2023/08/08 21:30:56;;;;;;;9.52;4.30;;;16.50;99.90;;;;;;4980934;28;20178;-61
2023/08/08 21:33:23;;;;;;;6.60;3.97;;;16.30;99.90;;;;;;4976308;28;20186;-61
2023/08/08 21:35:50;;;;;;;11.70;5.72;;;16.00;99.90;;;;;;4981232;28;20684;-62
2023/08/08 21:38:17;;;;;;;9.82;4.40;;;15.70;99.90;;;;;;4981881;28;20268;-62
2023/08/08 21:40:45;;;;;;;8.13;4.80;;;15.80;99.90;;;;;;4985523;28;20248;-62
2023/08/08 21:43:12;;;;;;;9.07;4.63;;;15.80;99.90;;;;;;4979300;28;20731;-63
2023/08/08 21:45:39;;;;;;;6.90;3.08;;;16.00;99.90;;;;;;4985917;28;20267;-62
2023/08/08 21:48:06;;;;;;;7.78;4.40;;;15.80;99.90;;;;;;4985470;28;20619;-63
2023/08/08 21:50:33;;;;;;;5.40;3.63;;;15.90;99.90;;;;;;4983472;28;20547;-62
2023/08/08 21:53:00;;;;;;;8.63;4.22;;;15.90;99.90;;;;;;4986302;28;20325;-63
2023/08/08 21:55:27;;;;;;;4.50;3.22;;;15.90;99.90;;;;;;4984150;28;20283;-63
2023/08/08 21:57:54;;;;;;;5.28;4.38;;;16.00;99.90;;;;;;4986866;28;20750;-62
2023/08/08 22:00:21;;;;;;;5.55;4.30;;;15.70;99.90;;;;;;4998810;28;20635;-63
2023/08/08 22:02:48;;;;;;;6.50;4.70;;;15.50;99.90;;;;;;4986673;28;20218;-64
2023/08/08 22:05:16;;;;;;;5.47;3.95;;;15.50;99.90;;;;;;4983434;28;20570;-63
2023/08/08 22:07:43;;;;;;;6.13;5.03;;;15.60;99.90;;;;;;4986127;28;20207;-63
2023/08/08 22:10:10;;;;;;;7.63;4.78;;;15.50;99.90;;;;;;4978528;28;20529;-67
2023/08/08 22:12:37;;;;;;;7.78;6.00;;;15.40;99.90;;;;;;5001632;28;20198;-69
2023/08/08 22:15:05;;;;;;;10.45;5.70;;;15.30;99.90;;;;;;4984320;28;20257;-68
2023/08/08 22:17:32;;;;;;;10.27;7.13;;;15.30;99.90;;;;;;4984844;28;20198;-68
2023/08/08 22:19:59;;;;;;;10.18;6.80;;;15.30;99.90;;;;;;4985653;28;20277;-68
2023/08/08 22:22:26;;;;;;;7.18;4.53;;;15.30;99.90;;;;;;4990498;28;20201;-67
2023/08/08 22:24:53;;;;;;;13.40;6.50;;;15.30;99.90;;;;;;4986215;28;20688;-69
2023/08/08 22:27:20;;;;;;;8.23;5.07;;;15.20;99.90;;;;;;4990168;28;20190;-67
2023/08/08 22:29:47;;;;;;;7.10;4.95;;;15.10;99.90;;;;;;4986374;28;20677;-68
2023/08/08 22:32:14;;;;;;;9.03;8.10;;;15.00;99.90;;;;;;5003498;28;20247;-70
2023/08/08 22:34:41;;;;;;;10.80;8.23;;;14.90;99.90;;;;;;4988824;28;20201;-66
2023/08/08 22:37:08;;;;;;;8.13;6.03;;;15.00;99.90;;;;;;4989696;28;20222;-68
2023/08/08 22:39:35;;;;;;;8.20;5.50;;;15.10;99.90;;;;;;4990469;28;20818;-67
2023/08/08 22:42:02;;;;;;;8.95;5.82;;;15.10;99.90;;;;;;4989014;28;20201;-69
2023/08/08 22:44:29;;;;;;;10.18;7.32;;;15.10;99.90;;;;;;4999842;28;20202;-69
2023/08/08 22:46:56;;;;;;;9.60;6.20;;;15.20;99.90;;;;;;4983648;28;20225;-69
2023/08/08 22:49:23;;;;;;;8.43;6.47;;;15.10;99.90;;;;;;4986759;28;20548;-68
2023/08/08 22:51:50;;;;;;;9.48;6.30;;;15.20;99.90;;;;;;4989528;28;20182;-69
2023/08/08 22:54:17;;;;;;;6.72;5.28;;;15.20;99.90;;;;;;5006183;28;20280;-70
2023/08/08 22:56:46;;;;;;;8.70;6.03;;;15.30;99.90;;;;;;4989588;28;20186;-69
2023/08/08 22:59:13;;;;;;;9.32;6.75;;;15.20;99.90;;;;;;4989309;28;20688;-68
2023/08/08 23:01:40;;;;;;;9.45;7.07;;;15.20;99.90;;;;;;4986444;28;20299;-69
2023/08/08 23:04:07;;;;;;;12.35;7.05;;;15.20;1.00;;;;;;4986686;28;20200;-69
2023/08/08 23:06:34;;;;;;;7.47;5.45;;;15.10;1.00;;;;;;4986864;28;20305;-70
2023/08/08 23:09:01;;;;;;;6.78;5.45;;;15.10;1.00;;;;;;4988387;28;20232;-70
2023/08/08 23:11:28;;;;;;;7.55;5.18;;;15.00;1.00;;;;;;4985717;28;20210;-69
2023/08/08 23:13:55;;;;;;;4.97;4.03;;;15.00;1.00;;;;;;4987773;28;20192;-70
2023/08/08 23:16:22;;;;;;;4.68;4.03;;;14.90;1.00;;;;;;5002333;28;20198;-71
2023/08/08 23:18:49;;;;;;;5.97;3.60;;;14.80;1.00;;;;;;4989468;28;20284;-71
2023/08/08 23:21:16;;;;;;;3.20;2.90;;;14.90;1.00;;;;;;4981975;28;20660;-71
2023/08/08 23:23:43;;;;;;;3.83;3.28;;;15.00;1.00;;;;;;4985505;28;20193;-71
2023/08/08 23:26:11;;;;;;;5.85;4.20;;;15.30;1.00;;;;;;4983893;28;20598;-69
2023/08/08 23:28:38;;;;;;;4.57;3.45;;;15.20;1.00;;;;;;4985429;28;20197;-70
2023/08/08 23:31:05;;;;;;;3.20;2.75;;;15.30;1.00;;;;;;4989016;28;20379;-71
2023/08/08 23:33:32;;;;;;;3.65;2.72;;;15.30;1.00;;;;;;4992883;28;20201;-71
2023/08/08 23:35:59;;;;;;;3.85;2.53;;;15.10;1.00;;;;;;5003418;28;20205;-69
2023/08/08 23:38:26;;;;;;;3.72;2.97;;;15.00;1.00;;;;;;4981742;28;20217;-69
2023/08/08 23:40:53;;;;;;;3.03;2.20;;;15.00;1.00;;;;;;4999138;28;20594;-69
2023/08/08 23:43:20;;;;;;;5.55;3.20;;;15.10;1.00;;;;;;4979842;28;20672;-71
2023/08/08 23:45:47;;;;;;;5.50;2.70;;;15.20;1.00;;;;;;4984141;28;20303;-69
2023/08/08 23:48:14;;;;;;;2.67;2.33;;;15.10;1.00;;;;;;4982787;28;20198;-72
2023/08/08 23:50:41;;;;;;;2.63;2.05;;;15.00;1.00;;;;;;4985893;28;20221;-68
2023/08/08 23:53:08;;;;;;;2.17;1.98;;;14.90;1.00;;;;;;5002528;28;20272;-68
2023/08/08 23:55:35;;;;;;;2.58;2.10;;;14.90;1.00;;;;;;4994646;28;20194;-74
2023/08/08 23:58:02;;;;;;;3.25;2.60;;;15.10;1.00;;;;;;4983170;28;20249;-68
